Time;durP1;ratioP1;P1;durP2;ratioP2;P2;SDS_P1;SDS_P2;PMS_P1;PMS_P2;Temp;Humidity;BMP_temperature;BMP_pressure;BME280_temperature;BME280_humidity;BME280_pressure;Samples;Min_cycle;Max_cycle;Signal;HPM_P1;HPM_P2
2023/10/22 00:08:34;;;;;;;;;;;;;;;;;;;;;
2023/10/22 00:15:11;;;;;;;6.63;1.60;;;12.70;99.90;;;;;;5871527;24;20071;-76
2023/10/22 00:18:05;;;;;;;5.25;1.60;;;12.70;99.90;;;;;;5835342;24;20005;-76
2023/10/22 00:21:28;;;;;;;8.85;1.33;;;12.70;99.90;;;;;;5871952;24;20034;-76
2023/10/22 00:32:49;;;;;;;7.97;1.70;;;12.70;99.90;;;;;;5753329;24;20502;-76
2023/10/22 00:36:24;;;;;;;;;;;;;;;;;;;;;
2023/10/22 00:42:29;;;;;;;6.75;1.67;;;12.80;99.90;;;;;;5714160;25;20043;-78
2023/10/22 01:08:34;;;;;;;5.20;1.60;;;12.20;99.90;;;;;;6131158;23;1252661;-77
2023/10/22 01:12:12;;;;;;;;;;;;;;;;;;;;;
2023/10/22 01:15:32;;;;;;;5.95;1.30;;;12.00;99.90;;;;;;5893467;24;20521;-78
2023/10/22 01:18:14;;;;;;;6.88;1.60;;;12.00;99.90;;;;;;6003692;23;20031;-77
2023/10/22 01:25:59;;;;;;;5.60;1.63;;;11.90;99.90;;;;;;5777304;24;20034;-80
2023/10/22 01:43:56;;;;;;;6.85;1.98;;;11.70;99.90;;;;;;5925240;24;20033;-81
2023/10/22 01:47:43;;;;;;;;;;;;;;;;;;;;;
2023/10/22 01:54:43;;;;;;;;;;;;;;;;;;;;;
2023/10/22 01:57:52;;;;;;;7.72;2.15;;;11.70;99.90;;;;;;5865814;24;20036;-81
2023/10/22 02:05:12;;;;;;;6.47;2.67;;;11.70;99.90;;;;;;5792871;24;20026;-80
2023/10/22 02:17:48;;;;;;;;;;;;;;;;;;;;;
2023/10/22 02:50:08;;;;;;;7.05;2.60;;;11.70;99.90;;;;;;5556309;22;15126284;-79
2023/10/22 02:52:33;;;;;;;9.60;3.30;;;11.70;99.90;;;;;;6162700;23;20049;-79
2023/10/22 02:54:59;;;;;;;9.10;3.28;;;11.70;99.90;;;;;;6161102;23;20456;-79
2023/10/22 02:57:25;;;;;;;9.52;3.20;;;11.70;99.90;;;;;;6161846;23;20453;-79
2023/10/22 02:59:50;;;;;;;9.98;2.78;;;11.70;99.90;;;;;;6161568;23;20024;-79
2023/10/22 03:02:16;;;;;;;5.85;2.75;;;11.70;99.90;;;;;;6161202;23;20021;-80
2023/10/22 03:04:42;;;;;;;6.38;2.83;;;11.70;99.90;;;;;;6137441;23;20044;-79
2023/10/22 03:07:08;;;;;;;6.97;3.13;;;11.70;99.90;;;;;;6162489;23;20445;-79
2023/10/22 03:09:33;;;;;;;7.82;3.00;;;11.70;99.90;;;;;;6188181;23;20028;-79
2023/10/22 03:11:59;;;;;;;4.55;3.00;;;11.70;99.90;;;;;;6189041;23;20020;-80
2023/10/22 03:14:24;;;;;;;5.72;3.20;;;11.70;99.90;;;;;;6186638;23;20013;-80
2023/10/22 03:16:50;;;;;;;6.40;3.20;;;11.80;99.90;;;;;;6186618;23;20013;-79
2023/10/22 03:19:17;;;;;;;5.93;3.47;;;11.80;99.90;;;;;;6170950;23;20449;-79
2023/10/22 03:21:43;;;;;;;7.72;3.78;;;11.70;99.90;;;;;;6191097;23;20089;-80
2023/10/22 03:24:11;;;;;;;8.32;3.97;;;11.80;99.90;;;;;;6192054;23;20056;-80
2023/10/22 03:26:37;;;;;;;7.20;3.58;;;11.80;99.90;;;;;;6218368;23;20020;-80
2023/10/22 03:29:03;;;;;;;6.97;4.13;;;11.80;99.90;;;;;;6217655;23;20344;-80
2023/10/22 03:31:28;;;;;;;6.35;4.00;;;11.80;99.90;;;;;;6218815;23;20046;-80
2023/10/22 03:33:54;;;;;;;10.13;4.38;;;11.80;99.90;;;;;;6215767;23;20513;-80
2023/10/22 03:36:19;;;;;;;10.45;3.72;;;11.80;99.90;;;;;;6211181;23;20337;-79
2023/10/22 03:38:45;;;;;;;6.53;4.20;;;11.80;99.90;;;;;;6212499;23;20020;-80
2023/10/22 03:41:11;;;;;;;8.50;4.03;;;11.90;99.90;;;;;;6184842;23;20017;-79
2023/10/22 03:43:36;;;;;;;7.75;4.57;;;11.90;99.90;;;;;;6209756;23;20021;-80
2023/10/22 03:46:02;;;;;;;8.95;3.92;;;11.80;99.90;;;;;;6185004;23;20019;-80
2023/10/22 03:48:29;;;;;;;9.40;4.10;;;11.90;99.90;;;;;;6161921;23;20020;-79
2023/10/22 03:50:55;;;;;;;7.90;4.78;;;11.90;99.90;;;;;;6184068;23;20024;-79
2023/10/22 03:53:24;;;;;;;9.10;4.82;;;11.90;99.90;;;;;;6209446;23;20031;-79
2023/10/22 03:55:50;;;;;;;10.98;5.15;;;11.90;99.90;;;;;;6209553;23;20021;-79
2023/10/22 03:58:16;;;;;;;9.18;4.85;;;11.90;99.90;;;;;;6208320;23;20120;-79
2023/10/22 04:00:41;;;;;;;8.88;5.00;;;11.90;99.90;;;;;;6209640;23;20012;-79
2023/10/22 04:03:07;;;;;;;6.63;4.90;;;11.90;99.90;;;;;;6209581;23;20536;-79
2023/10/22 04:05:33;;;;;;;9.98;5.55;;;11.90;99.90;;;;;;6209137;23;20020;-79
2023/10/22 04:07:59;;;;;;;9.15;5.85;;;12.00;99.90;;;;;;6211595;23;20056;-79
2023/10/22 04:10:25;;;;;;;10.57;6.30;;;11.90;99.90;;;;;;6209462;23;20012;-79
2023/10/22 04:12:50;;;;;;;8.43;6.15;;;11.90;99.90;;;;;;6209093;23;20020;-79
2023/10/22 04:15:16;;;;;;;9.00;6.47;;;11.90;99.90;;;;;;6209438;23;20445;-79
2023/10/22 04:17:46;;;;;;;10.85;7.53;;;12.00;99.90;;;;;;6206826;23;20128;-79
2023/10/22 04:20:11;;;;;;;12.02;7.30;;;12.00;99.90;;;;;;6211854;23;20070;-79
2023/10/22 04:22:37;;;;;;;13.43;8.60;;;12.00;99.90;;;;;;6209305;23;20206;-79
2023/10/22 04:25:03;;;;;;;13.10;7.80;;;12.00;99.90;;;;;;6210589;23;20012;-79
2023/10/22 04:27:28;;;;;;;16.00;9.40;;;12.10;99.90;;;;;;6211866;23;20156;-78
2023/10/22 04:29:55;;;;;;;12.50;8.63;;;12.00;99.90;;;;;;6210236;23;20020;-79
2023/10/22 04:32:21;;;;;;;16.63;10.73;;;12.10;99.90;;;;;;6210756;23;20515;-79
2023/10/22 04:34:47;;;;;;;16.70;10.52;;;12.10;99.90;;;;;;6212009;23;20344;-78
2023/10/22 04:37:13;;;;;;;20.67;11.05;;;12.10;99.90;;;;;;6210451;23;20127;-78
2023/10/22 04:39:39;;;;;;;19.40;11.48;;;12.10;99.90;;;;;;6210066;23;20052;-78
2023/10/22 04:42:05;;;;;;;16.33;12.20;;;12.20;99.90;;;;;;6210896;23;20021;-78
2023/10/22 04:44:30;;;;;;;21.13;12.38;;;12.20;99.90;;;;;;6209952;23;20444;-78
2023/10/22 04:46:57;;;;;;;19.40;12.82;;;12.20;99.90;;;;;;6198459;22;20024;-66
2023/10/22 04:49:24;;;;;;;19.42;14.05;;;12.20;99.90;;;;;;6177036;23;20447;-66
2023/10/22 04:51:49;;;;;;;21.90;14.38;;;12.20;99.90;;;;;;6209354;23;20021;-66
2023/10/22 04:54:15;;;;;;;25.30;14.70;;;12.30;99.90;;;;;;6185115;23;20017;-66
2023/10/22 04:56:40;;;;;;;24.20;16.55;;;12.30;99.90;;;;;;6211915;23;20020;-66
2023/10/22 04:59:06;;;;;;;24.67;16.27;;;12.30;99.90;;;;;;6184630;23;20019;-65
2023/10/22 05:01:32;;;;;;;21.05;15.68;;;12.30;99.90;;;;;;6185123;23;20012;-66
2023/10/22 05:03:57;;;;;;;19.30;14.45;;;12.30;99.90;;;;;;6212026;23;20077;-66
2023/10/22 05:06:23;;;;;;;15.93;12.07;;;12.40;99.90;;;;;;6212802;23;20066;-67
2023/10/22 05:08:48;;;;;;;12.20;9.07;;;12.40;99.90;;;;;;6185184;23;20030;-66
2023/10/22 05:11:15;;;;;;;8.23;4.90;;;12.40;99.90;;;;;;6212476;23;20343;-66
2023/10/22 05:13:45;;;;;;;7.47;3.33;;;12.40;99.90;;;;;;6184904;23;20009;-65
2023/10/22 05:16:11;;;;;;;9.95;2.22;;;12.30;99.90;;;;;;6209827;23;20322;-67
2023/10/22 05:18:37;;;;;;;5.20;1.90;;;12.30;99.90;;;;;;6183509;23;20101;-65
2023/10/22 05:21:07;;;;;;;8.65;2.22;;;12.20;99.90;;;;;;6211915;23;20344;-65
2023/10/22 05:23:33;;;;;;;5.72;1.70;;;12.00;99.90;;;;;;6212045;23;20024;-64
2023/10/22 05:26:11;;;;;;;4.80;1.70;;;12.00;99.90;;;;;;6212197;23;20059;-65
2023/10/22 05:28:37;;;;;;;6.45;1.52;;;11.90;99.90;;;;;;6183815;23;20372;-66
2023/10/22 05:31:14;;;;;;;9.65;1.92;;;11.90;99.90;;;;;;6211988;23;20009;-66
2023/10/22 05:33:41;;;;;;;15.77;2.92;;;11.80;99.90;;;;;;6212127;23;20016;-67
2023/10/22 05:36:17;;;;;;;10.15;2.70;;;11.70;99.90;;;;;;6210941;23;20017;-64
2023/10/22 05:38:43;;;;;;;13.77;2.55;;;11.70;99.90;;;;;;6159665;23;20017;-65
2023/10/22 05:41:15;;;;;;;8.45;2.00;;;11.70;99.90;;;;;;6210993;23;20096;-65
2023/10/22 05:43:41;;;;;;;19.05;2.88;;;11.70;99.90;;;;;;6211278;23;20016;-66
2023/10/22 05:46:07;;;;;;;9.93;2.45;;;11.70;99.90;;;;;;6184408;23;20399;-66
2023/10/22 05:48:32;;;;;;;10.80;2.92;;;11.70;99.90;;;;;;6211923;23;20024;-65
2023/10/22 05:51:00;;;;;;;12.85;3.20;;;11.70;99.90;;;;;;6212290;23;20016;-66
2023/10/22 05:53:26;;;;;;;12.32;3.00;;;11.70;99.90;;;;;;6212200;23;20021;-66
2023/10/22 05:55:58;;;;;;;17.80;3.28;;;11.70;99.90;;;;;;6184912;23;20481;-66
2023/10/22 05:58:25;;;;;;;13.48;2.90;;;11.80;99.90;;;;;;6211291;23;20016;-66
2023/10/22 06:00:51;;;;;;;13.27;2.80;;;11.80;99.90;;;;;;6211542;23;20019;-64
2023/10/22 06:03:17;;;;;;;10.30;2.50;;;11.80;99.90;;;;;;6184926;23;20021;-65
2023/10/22 06:05:42;;;;;;;11.10;2.90;;;11.80;99.90;;;;;;6212198;23;20047;-66
2023/10/22 06:08:08;;;;;;;10.07;2.13;;;11.80;99.90;;;;;;6185618;23;20017;-66
2023/10/22 06:10:44;;;;;;;6.57;1.98;;;11.80;99.90;;;;;;6184540;23;20035;-65
2023/10/22 06:13:11;;;;;;;8.80;1.70;;;11.80;99.90;;;;;;6211825;23;20039;-66
2023/10/22 06:15:39;;;;;;;10.35;2.28;;;11.70;99.90;;;;;;6212506;23;20020;-66
2023/10/22 06:18:05;;;;;;;6.82;2.05;;;11.70;99.90;;;;;;6207903;23;20016;-66
2023/10/22 06:20:32;;;;;;;9.15;2.13;;;11.70;99.90;;;;;;6184598;23;20020;-66
2023/10/22 06:22:58;;;;;;;8.13;2.25;;;11.70;99.90;;;;;;6211721;23;20016;-66
2023/10/22 06:25:24;;;;;;;10.65;1.95;;;11.70;99.90;;;;;;6211463;23;20376;-66
2023/10/22 06:27:50;;;;;;;12.10;2.40;;;11.70;99.90;;;;;;6211584;23;20012;-66
2023/10/22 06:30:22;;;;;;;10.55;2.45;;;11.70;99.90;;;;;;6159558;23;20661;-66
2023/10/22 06:32:51;;;;;;;8.27;2.30;;;11.60;99.90;;;;;;6185168;23;20083;-65
2023/10/22 06:35:17;;;;;;;9.43;2.55;;;11.70;99.90;;;;;;6211209;23;20112;-66
2023/10/22 06:37:43;;;;;;;11.60;2.67;;;11.60;99.90;;;;;;6185249;23;20024;-66
2023/10/22 06:40:09;;;;;;;14.07;3.25;;;11.60;99.90;;;;;;6211393;23;20015;-66
2023/10/22 06:42:35;;;;;;;14.75;3.58;;;11.60;99.90;;;;;;6211855;23;20016;-65
2023/10/22 06:45:00;;;;;;;11.20;3.03;;;11.60;99.90;;;;;;6184547;23;20023;-66
2023/10/22 06:47:28;;;;;;;12.18;2.78;;;11.60;99.90;;;;;;6211324;23;20017;-66
2023/10/22 06:49:53;;;;;;;9.75;3.10;;;11.60;99.90;;;;;;6212253;23;20023;-66
2023/10/22 06:52:19;;;;;;;7.82;2.70;;;11.60;99.90;;;;;;6211725;23;20332;-66
2023/10/22 06:54:44;;;;;;;15.25;3.45;;;11.60;99.90;;;;;;6211772;23;20013;-66
2023/10/22 06:57:10;;;;;;;11.48;3.03;;;11.60;99.90;;;;;;6185111;23;20019;-66
2023/10/22 06:59:36;;;;;;;14.27;3.10;;;11.60;99.90;;;;;;6210630;23;20025;-65
2023/10/22 07:02:02;;;;;;;15.77;3.10;;;11.60;99.90;;;;;;6185132;23;20107;-66
2023/10/22 07:04:27;;;;;;;15.68;3.17;;;11.60;99.90;;;;;;6184637;23;20051;-66
2023/10/22 07:06:53;;;;;;;15.27;2.88;;;11.60;99.90;;;;;;6211481;23;20013;-66
2023/10/22 07:09:19;;;;;;;10.38;3.88;;;11.60;99.90;;;;;;6185465;23;20024;-66
2023/10/22 07:11:46;;;;;;;19.25;4.30;;;11.60;99.90;;;;;;6186660;23;20052;-66
2023/10/22 07:14:12;;;;;;;16.30;6.50;;;11.60;99.90;;;;;;6185963;23;20509;-66
2023/10/22 07:16:38;;;;;;;15.77;4.32;;;11.70;99.90;;;;;;6184233;23;20021;-66
2023/10/22 07:19:03;;;;;;;7.90;4.10;;;11.70;99.90;;;;;;6212892;23;20143;-66
2023/10/22 07:21:29;;;;;;;14.02;5.80;;;11.70;99.90;;;;;;6213282;23;20095;-66
2023/10/22 07:23:55;;;;;;;15.40;5.85;;;11.70;99.90;;;;;;6213178;23;20016;-66
2023/10/22 07:26:20;;;;;;;13.57;3.97;;;11.60;99.90;;;;;;6186074;23;20021;-66
2023/10/22 07:28:46;;;;;;;9.60;4.13;;;11.60;99.90;;;;;;6185459;23;20099;-66
2023/10/22 07:31:17;;;;;;;14.57;3.47;;;11.60;99.90;;;;;;6212128;23;20067;-66
2023/10/22 07:33:43;;;;;;;9.23;3.35;;;11.60;99.90;;;;;;6186685;23;20023;-66
2023/10/22 07:36:08;;;;;;;7.70;2.38;;;11.60;99.90;;;;;;6186194;23;20632;-66
2023/10/22 07:38:34;;;;;;;6.82;2.20;;;11.60;99.90;;;;;;6213093;23;20336;-66
2023/10/22 07:41:00;;;;;;;10.25;2.42;;;11.60;99.90;;;;;;6161807;23;20021;-65
2023/10/22 07:43:28;;;;;;;8.48;1.90;;;11.70;99.90;;;;;;6185403;23;20028;-66
2023/10/22 07:46:01;;;;;;;10.82;2.40;;;11.70;99.90;;;;;;6213801;23;20079;-66
2023/10/22 07:48:26;;;;;;;9.75;2.20;;;11.80;99.90;;;;;;6200107;23;20086;-66
2023/10/22 07:50:52;;;;;;;8.23;2.10;;;11.70;99.90;;;;;;6210787;23;20017;-66
2023/10/22 07:53:18;;;;;;;9.15;1.70;;;11.80;99.90;;;;;;6211362;23;20070;-66
2023/10/22 07:55:45;;;;;;;8.50;1.45;;;11.80;99.90;;;;;;6212769;23;20107;-67
2023/10/22 07:58:11;;;;;;;7.03;1.40;;;11.80;99.90;;;;;;6210782;23;20013;-66
2023/10/22 08:00:37;;;;;;;9.32;1.60;;;11.90;99.90;;;;;;6212669;23;20025;-66
2023/10/22 08:03:03;;;;;;;14.50;2.53;;;11.90;99.90;;;;;;6212398;23;20512;-66
2023/10/22 08:05:30;;;;;;;9.25;1.70;;;12.00;99.90;;;;;;6212777;23;20048;-66
2023/10/22 08:07:55;;;;;;;7.82;1.63;;;11.90;99.90;;;;;;6185756;23;20024;-66
2023/10/22 08:10:21;;;;;;;7.65;1.75;;;12.00;99.90;;;;;;6212643;23;20470;-66
2023/10/22 08:12:46;;;;;;;10.95;1.88;;;12.00;99.90;;;;;;6212315;23;20466;-66
2023/10/22 08:15:12;;;;;;;9.60;2.58;;;12.00;99.90;;;;;;6213211;23;20019;-66
2023/10/22 08:17:38;;;;;;;9.32;3.05;;;12.00;99.90;;;;;;6209024;23;20032;-66
2023/10/22 08:20:04;;;;;;;6.43;2.00;;;12.00;99.90;;;;;;6186385;23;20012;-66
2023/10/22 08:22:30;;;;;;;6.43;2.05;;;12.10;99.90;;;;;;6211022;23;20075;-67
2023/10/22 08:24:55;;;;;;;6.10;2.05;;;12.10;99.90;;;;;;6210532;23;20083;-66
2023/10/22 08:27:21;;;;;;;5.72;1.38;;;12.10;99.90;;;;;;6210969;23;20020;-66
2023/10/22 08:29:47;;;;;;;4.63;1.40;;;12.10;99.90;;;;;;6212280;23;20074;-66
2023/10/22 08:32:12;;;;;;;8.25;1.70;;;12.10;99.90;;;;;;6210980;23;20069;-66
2023/10/22 08:34:38;;;;;;;6.05;1.73;;;12.20;99.90;;;;;;6210534;23;20082;-66
2023/10/22 08:37:04;;;;;;;12.95;4.25;;;12.20;99.90;;;;;;6212962;23;20016;-66
2023/10/22 08:39:30;;;;;;;5.88;2.22;;;12.20;99.90;;;;;;6209652;23;20013;-66
2023/10/22 08:42:09;;;;;;;12.52;2.15;;;12.30;99.90;;;;;;6212647;23;20343;-66
2023/10/22 08:44:45;;;;;;;25.00;12.07;;;12.30;99.90;;;;;;6211519;23;20339;-66
2023/10/22 08:47:11;;;;;;;9.63;3.53;;;12.40;99.90;;;;;;6212384;23;20020;-67
2023/10/22 08:49:40;;;;;;;6.57;1.65;;;12.50;99.90;;;;;;6185914;23;20385;-66
2023/10/22 08:52:09;;;;;;;4.70;1.27;;;12.50;99.90;;;;;;6212738;23;20024;-66
2023/10/22 08:54:37;;;;;;;4.55;1.40;;;12.50;99.90;;;;;;6185544;23;20027;-67
2023/10/22 08:57:03;;;;;;;6.10;1.60;;;12.60;99.90;;;;;;6212858;23;20044;-67
2023/10/22 08:59:29;;;;;;;12.90;4.07;;;12.60;99.90;;;;;;6210975;23;20016;-67
2023/10/22 09:01:56;;;;;;;5.85;1.88;;;12.70;99.90;;;;;;6212837;23;20023;-67
2023/10/22 09:04:22;;;;;;;5.63;1.83;;;12.70;99.90;;;;;;6212636;23;20024;-66
2023/10/22 09:06:52;;;;;;;6.97;2.20;;;12.70;99.90;;;;;;6212662;23;20095;-66
2023/10/22 09:09:29;;;;;;;6.80;2.05;;;12.80;99.90;;;;;;6212067;23;20016;-67
2023/10/22 09:11:56;;;;;;;11.82;3.80;;;12.80;99.90;;;;;;6212475;23;20062;-68
2023/10/22 09:14:23;;;;;;;5.20;1.67;;;12.90;99.90;;;;;;6184115;23;20351;-67
2023/10/22 09:16:49;;;;;;;8.02;2.00;;;12.90;99.90;;;;;;6209264;23;20016;-66
2023/10/22 09:19:34;;;;;;;5.60;1.58;;;12.90;99.90;;;;;;6212220;23;20513;-66
2023/10/22 09:21:59;;;;;;;5.45;2.00;;;12.90;99.90;;;;;;6185655;23;20091;-67
2023/10/22 09:24:25;;;;;;;7.72;1.88;;;13.00;99.90;;;;;;6211762;23;20055;-66
2023/10/22 09:26:51;;;;;;;7.65;1.42;;;13.00;99.90;;;;;;6185690;23;20016;-66
2023/10/22 09:29:17;;;;;;;4.43;1.38;;;13.10;99.90;;;;;;6210995;23;20051;-66
2023/10/22 09:31:50;;;;;;;6.40;2.00;;;13.20;99.90;;;;;;6211673;23;20400;-67
2023/10/22 09:34:23;;;;;;;;;;;13.30;99.90;;;;;;6185204;23;20021;-66
2023/10/22 09:36:53;;;;;;;7.22;1.30;;;13.40;99.90;;;;;;6212262;23;19927;-67
2023/10/22 09:39:38;;;;;;;6.32;3.08;;;13.30;99.90;;;;;;6211737;23;20391;-68
2023/10/22 09:42:05;;;;;;;8.75;2.55;;;13.30;99.90;;;;;;6211833;23;20344;-68
2023/10/22 09:44:34;;;;;;;8.85;2.53;;;13.20;99.90;;;;;;6211058;23;20502;-67
2023/10/22 09:47:01;;;;;;;8.95;2.00;;;13.20;99.90;;;;;;6184671;23;20095;-67
2023/10/22 09:49:29;;;;;;;9.63;1.85;;;13.20;99.90;;;;;;6211643;23;20013;-66
2023/10/22 09:51:58;;;;;;;5.93;1.95;;;13.20;99.90;;;;;;6212084;23;20040;-67
2023/10/22 09:54:37;;;;;;;6.35;2.00;;;13.20;99.90;;;;;;6212025;23;20023;-67
2023/10/22 09:57:14;;;;;;;9.30;2.83;;;13.20;99.90;;;;;;6211070;23;20470;-67
2023/10/22 09:59:46;;;;;;;8.57;3.15;;;13.20;99.90;;;;;;6210238;23;20455;-67
2023/10/22 10:02:15;;;;;;;9.13;2.53;;;13.20;99.90;;;;;;6210844;23;20017;-67
2023/10/22 10:04:43;;;;;;;6.32;2.55;;;13.20;99.90;;;;;;6185154;23;20070;-67
2023/10/22 10:07:09;;;;;;;6.20;2.50;;;13.30;99.90;;;;;;6212148;23;20015;-67
2023/10/22 10:09:36;;;;;;;9.60;3.40;;;13.30;99.90;;;;;;6210405;23;20419;-67
2023/10/22 10:12:08;;;;;;;5.50;2.05;;;13.40;99.90;;;;;;6211219;23;20020;-66
2023/10/22 10:14:36;;;;;;;6.10;1.48;;;13.50;99.90;;;;;;6184144;23;20095;-67
2023/10/22 10:17:03;;;;;;;5.22;2.08;;;13.60;99.90;;;;;;6181440;23;20335;-67
2023/10/22 10:19:29;;;;;;;5.78;2.00;;;13.60;99.90;;;;;;6185893;23;20062;-66
2023/10/22 10:21:55;;;;;;;4.13;2.15;;;13.60;99.90;;;;;;6184570;23;20088;-67
2023/10/22 10:24:21;;;;;;;8.68;3.65;;;13.50;99.90;;;;;;6211153;23;20578;-67
2023/10/22 10:26:50;;;;;;;14.68;4.90;;;13.40;99.90;;;;;;6211141;23;20013;-66
2023/10/22 10:29:24;;;;;;;13.85;5.22;;;13.30;99.90;;;;;;6211073;23;20028;-66
2023/10/22 10:31:51;;;;;;;8.00;4.03;;;13.10;99.90;;;;;;6184598;23;20055;-66
2023/10/22 10:34:36;;;;;;;17.27;8.00;;;13.10;99.90;;;;;;6211400;23;20017;-67
2023/10/22 10:37:12;;;;;;;8.20;3.10;;;13.00;99.90;;;;;;6211016;23;20055;-66
2023/10/22 10:39:46;;;;;;;5.55;2.50;;;13.00;99.90;;;;;;6184693;23;20045;-67
2023/10/22 10:42:32;;;;;;;7.35;2.28;;;12.90;99.90;;;;;;6184504;23;20088;-67
2023/10/22 10:44:58;;;;;;;7.38;2.53;;;13.00;99.90;;;;;;6184684;23;20036;-67
2023/10/22 10:47:32;;;;;;;6.55;2.20;;;13.00;99.90;;;;;;6213646;23;20043;-67
2023/10/22 10:49:59;;;;;;;6.35;2.78;;;13.00;99.90;;;;;;6187392;23;20028;-67
2023/10/22 10:52:26;;;;;;;6.10;1.90;;;13.00;99.90;;;;;;6187340;23;20052;-66
2023/10/22 10:54:59;;;;;;;3.42;1.38;;;13.10;99.90;;;;;;6186494;23;20104;-67
2023/10/22 10:57:34;;;;;;;;;;;13.10;99.90;;;;;;6162502;23;20351;-68
2023/10/22 11:00:00;;;;;;;3.53;1.10;;;13.10;99.90;;;;;;6160299;23;19916;-69
2023/10/22 11:02:26;;;;;;;3.97;1.25;;;13.20;99.90;;;;;;6213455;23;20039;-68
2023/10/22 11:04:51;;;;;;;3.38;1.48;;;13.30;99.90;;;;;;6213363;23;20107;-68
2023/10/22 11:07:19;;;;;;;5.55;1.92;;;13.40;99.90;;;;;;6213486;23;20020;-68
2023/10/22 11:09:46;;;;;;;8.00;1.23;;;13.40;99.90;;;;;;6213254;23;20364;-68
2023/10/22 11:12:12;;;;;;;6.45;2.10;;;13.50;99.90;;;;;;6214118;23;20120;-68
2023/10/22 11:14:38;;;;;;;6.50;1.90;;;13.50;99.90;;;;;;6185409;23;20040;-68
2023/10/22 11:17:04;;;;;;;4.45;1.60;;;13.60;99.90;;;;;;6209417;23;20521;-68
2023/10/22 11:19:31;;;;;;;4.53;2.10;;;13.60;99.90;;;;;;6161878;23;20016;-68
2023/10/22 11:21:58;;;;;;;5.65;2.53;;;13.60;99.90;;;;;;6213422;23;20073;-69
2023/10/22 11:24:34;;;;;;;5.70;2.22;;;13.60;99.90;;;;;;6186247;23;20021;-68
2023/10/22 11:27:04;;;;;;;3.40;1.40;;;13.70;99.90;;;;;;6213715;23;20063;-68
2023/10/22 11:29:48;;;;;;;4.85;1.67;;;13.70;99.90;;;;;;6212143;23;20016;-67
2023/10/22 11:32:16;;;;;;;3.53;1.20;;;13.70;99.90;;;;;;6213873;23;20044;-67
2023/10/22 11:34:56;;;;;;;5.32;2.53;;;13.80;99.90;;;;;;6213158;23;20056;-67
2023/10/22 11:37:38;;;;;;;3.88;0.98;;;13.90;99.90;;;;;;6186003;23;20020;-67
2023/10/22 11:40:30;;;;;;;4.30;1.63;;;14.00;99.90;;;;;;6185643;23;20456;-67
2023/10/22 11:43:03;;;;;;;1.83;0.85;;;14.10;99.90;;;;;;6173279;23;20082;-68
2023/10/22 11:45:31;;;;;;;;;;;14.10;99.90;;;;;;6186362;23;20473;-68
2023/10/22 11:48:14;;;;;;;5.28;1.88;;;14.10;99.90;;;;;;6193512;23;20328;-68
2023/10/22 11:50:48;;;;;;;4.40;2.13;;;14.10;99.90;;;;;;6213691;23;20020;-67
2023/10/22 11:53:13;;;;;;;5.20;1.02;;;14.10;99.90;;;;;;6213016;23;20016;-67
2023/10/22 11:55:40;;;;;;;3.42;1.00;;;14.20;99.90;;;;;;6211161;23;20091;-67
2023/10/22 11:58:18;;;;;;;3.90;0.75;;;14.20;99.90;;;;;;6212134;23;20086;-67
2023/10/22 12:00:48;;;;;;;2.15;0.80;;;14.20;99.90;;;;;;6213008;23;20012;-67
2023/10/22 12:03:15;;;;;;;1.52;0.80;;;14.20;99.90;;;;;;6210677;23;20025;-67
2023/10/22 12:05:41;;;;;;;2.88;0.70;;;14.30;99.90;;;;;;6213182;23;20017;-67
2023/10/22 12:08:06;;;;;;;7.65;1.38;;;14.30;99.90;;;;;;6213177;23;20478;-67
2023/10/22 12:10:32;;;;;;;5.57;1.05;;;14.30;99.90;;;;;;6210681;23;20096;-67
2023/10/22 12:12:57;;;;;;;5.13;1.17;;;14.20;99.90;;;;;;6212620;23;20056;-67
2023/10/22 12:15:25;;;;;;;4.15;1.00;;;14.20;99.90;;;;;;6212969;23;20088;-67
2023/10/22 12:17:51;;;;;;;2.25;0.80;;;14.20;99.90;;;;;;6209393;23;20357;-67
2023/10/22 12:20:17;;;;;;;2.85;0.90;;;14.20;99.90;;;;;;6211195;23;20019;-68
2023/10/22 12:22:42;;;;;;;3.90;0.80;;;14.20;99.90;;;;;;6212810;23;20440;-67
2023/10/22 12:25:08;;;;;;;4.57;0.90;;;14.10;99.90;;;;;;6212602;23;20012;-67
2023/10/22 12:27:34;;;;;;;1.85;0.80;;;14.00;99.90;;;;;;6213132;23;20028;-67
2023/10/22 12:30:01;;;;;;;5.18;0.90;;;14.00;99.90;;;;;;6212238;23;20080;-67
2023/10/22 12:32:26;;;;;;;4.68;1.00;;;13.90;99.90;;;;;;6212511;23;20021;-68
2023/10/22 12:34:52;;;;;;;8.80;2.97;;;13.80;99.90;;;;;;6213274;23;20137;-68
2023/10/22 12:37:18;;;;;;;3.50;1.15;;;13.70;99.90;;;;;;6212868;23;20023;-67
2023/10/22 12:39:44;;;;;;;2.97;0.82;;;13.60;99.90;;;;;;6211020;23;20377;-67
2023/10/22 12:42:13;;;;;;;3.53;1.63;;;13.60;99.90;;;;;;6212917;23;20017;-67
2023/10/22 12:44:43;;;;;;;5.72;2.08;;;13.60;99.90;;;;;;6211901;23;20025;-67
2023/10/22 12:47:12;;;;;;;7.10;2.80;;;13.70;99.90;;;;;;6212434;23;20013;-68
2023/10/22 12:49:40;;;;;;;9.10;3.40;;;13.70;99.90;;;;;;6212675;23;20558;-66
2023/10/22 12:52:06;;;;;;;8.80;3.67;;;13.70;99.90;;;;;;6212491;23;20114;-68
2023/10/22 12:54:32;;;;;;;11.10;5.03;;;13.70;99.90;;;;;;6185359;23;20016;-67
2023/10/22 12:56:59;;;;;;;8.68;2.75;;;13.80;99.90;;;;;;6212832;23;20024;-68
2023/10/22 12:59:24;;;;;;;8.52;2.28;;;13.80;99.90;;;;;;6211883;23;20047;-68
2023/10/22 13:01:50;;;;;;;5.72;2.60;;;13.90;99.90;;;;;;6212588;23;20013;-68
2023/10/22 13:04:16;;;;;;;10.00;1.83;;;14.00;99.90;;;;;;6212019;23;20466;-67
2023/10/22 13:06:41;;;;;;;8.77;3.78;;;14.10;99.90;;;;;;6185513;23;20013;-67
2023/10/22 13:09:08;;;;;;;12.25;6.50;;;14.20;99.90;;;;;;6212135;23;20052;-67
2023/10/22 13:11:34;;;;;;;9.73;3.90;;;14.20;99.90;;;;;;6212426;23;20351;-67
2023/10/22 13:14:00;;;;;;;8.55;3.55;;;14.30;99.90;;;;;;6212003;23;20088;-68
2023/10/22 13:16:25;;;;;;;4.40;1.30;;;14.40;99.90;;;;;;6210269;23;20017;-67
2023/10/22 13:18:51;;;;;;;3.75;1.40;;;14.40;99.90;;;;;;6211420;23;20058;-67
2023/10/22 13:21:17;;;;;;;5.25;2.80;;;14.40;99.90;;;;;;6185455;23;20021;-67
2023/10/22 13:23:42;;;;;;;6.88;2.05;;;14.40;99.90;;;;;;6160404;23;20021;-67
2023/10/22 13:26:09;;;;;;;6.03;2.42;;;14.50;99.90;;;;;;6212205;23;20078;-68
2023/10/22 13:28:35;;;;;;;8.52;2.33;;;14.40;99.90;;;;;;6211874;23;20028;-66
2023/10/22 13:31:02;;;;;;;5.72;1.38;;;14.40;99.90;;;;;;6213159;23;20009;-67
2023/10/22 13:33:28;;;;;;;4.75;1.73;;;14.40;99.90;;;;;;6212082;23;20108;-67
2023/10/22 13:35:55;;;;;;;3.67;1.30;;;14.50;99.90;;;;;;6212110;23;20040;-67
2023/10/22 13:38:21;;;;;;;3.67;1.45;;;14.40;99.90;;;;;;6211605;23;20515;-68
2023/10/22 13:40:47;;;;;;;5.32;2.05;;;14.50;99.90;;;;;;6211658;23;20020;-68
2023/10/22 13:43:12;;;;;;;4.70;2.10;;;14.50;99.90;;;;;;6211544;23;20025;-67
2023/10/22 13:45:38;;;;;;;9.18;2.90;;;14.50;99.90;;;;;;6211545;23;20545;-67
2023/10/22 13:48:05;;;;;;;7.03;2.72;;;14.50;99.90;;;;;;6194168;23;20613;-67
2023/10/22 13:50:31;;;;;;;6.43;2.25;;;14.50;99.90;;;;;;6211610;23;20078;-67
2023/10/22 13:52:57;;;;;;;8.80;3.53;;;14.50;99.90;;;;;;6211761;23;20059;-66
2023/10/22 13:55:22;;;;;;;6.88;2.40;;;14.50;99.90;;;;;;6211219;23;20024;-67
2023/10/22 13:57:52;;;;;;;4.25;1.13;;;14.40;99.90;;;;;;6210119;23;20599;-67
2023/10/22 14:00:18;;;;;;;6.03;2.15;;;14.40;99.90;;;;;;6211269;23;20009;-68
2023/10/22 14:02:44;;;;;;;4.20;1.40;;;14.40;99.90;;;;;;6211525;23;20677;-68
2023/10/22 14:05:11;;;;;;;4.00;1.20;;;14.40;99.90;;;;;;6211867;23;20721;-68
2023/10/22 14:07:37;;;;;;;3.50;1.10;;;14.40;99.90;;;;;;6211578;23;20095;-68
2023/10/22 14:10:04;;;;;;;4.00;0.80;;;14.40;99.90;;;;;;6210124;23;20533;-67
2023/10/22 14:12:30;;;;;;;6.63;2.05;;;14.30;99.90;;;;;;6211457;23;20016;-67
2023/10/22 14:14:55;;;;;;;5.47;1.20;;;14.30;99.90;;;;;;6209758;23;20017;-67
2023/10/22 14:17:21;;;;;;;5.55;1.45;;;14.30;99.90;;;;;;6204834;23;20075;-67
2023/10/22 14:19:46;;;;;;;4.13;1.02;;;14.20;99.90;;;;;;6210773;23;20096;-68
2023/10/22 14:22:12;;;;;;;3.03;0.90;;;14.20;99.90;;;;;;6210630;23;20052;-67
2023/10/22 14:24:38;;;;;;;4.20;1.35;;;14.20;99.90;;;;;;6209183;23;20021;-67
2023/10/22 14:27:03;;;;;;;4.88;1.92;;;14.20;99.90;;;;;;6211367;23;20024;-68
2023/10/22 14:29:29;;;;;;;4.28;1.30;;;14.20;99.90;;;;;;6209272;23;20020;-68
2023/10/22 14:31:55;;;;;;;5.38;1.70;;;14.20;99.90;;;;;;6210941;23;20429;-68
2023/10/22 14:34:20;;;;;;;5.90;1.40;;;14.10;99.90;;;;;;6211133;23;20021;-68
2023/10/22 14:36:46;;;;;;;10.18;2.58;;;14.10;99.90;;;;;;6207779;23;20071;-68
2023/10/22 14:39:12;;;;;;;4.95;1.23;;;14.00;99.90;;;;;;6209847;23;20294;-68
2023/10/22 14:41:38;;;;;;;5.60;1.92;;;14.00;99.90;;;;;;6208932;23;20083;-67
2023/10/22 14:44:03;;;;;;;3.92;1.50;;;14.00;99.90;;;;;;6206342;23;20013;-68
2023/10/22 14:46:31;;;;;;;5.25;1.30;;;14.00;99.90;;;;;;6210540;23;20036;-68
2023/10/22 14:48:57;;;;;;;6.68;1.40;;;13.90;99.90;;;;;;6208955;23;20083;-68
2023/10/22 14:51:24;;;;;;;4.00;1.13;;;13.90;99.90;;;;;;6208499;23;20099;-67
2023/10/22 14:53:50;;;;;;;2.53;0.80;;;13.80;99.90;;;;;;6208644;23;20106;-68
2023/10/22 14:56:15;;;;;;;3.40;0.93;;;13.80;99.90;;;;;;6208597;23;20020;-67